Time;durP1;ratioP1;P1;durP2;ratioP2;P2;SDS_P1;SDS_P2;PMS_P1;PMS_P2;Temp;Humidity;BMP_temperature;BMP_pressure;BME280_temperature;BME280_humidity;BME280_pressure;Samples;Min_cycle;Max_cycle;Signal;HPM_P1;HPM_P2
2022/02/04 00:01:34;;;;;;;30.52;19.90;;;;;;;;;;5034073;28;20505;-89
2022/02/04 00:08:58;;;;;;;32.45;19.02;;;;;;;;;;5045620;28;20061;-83
2022/02/04 00:25:04;;;;;;;29.92;18.80;;;;;;;;;;5048991;28;20028;-83
2022/02/04 00:27:29;;;;;;;32.22;19.83;;;;;;;;;;5028307;28;20026;-83
2022/02/04 00:30:05;;;;;;;30.45;19.05;;;;;;;;;;5024854;28;20405;-86
2022/02/04 00:32:33;;;;;;;31.02;19.08;;;;;;;;;;5029815;28;20045;-89
2022/02/04 00:35:51;;;;;;;31.08;19.80;;;;;;;;;;5042626;28;20031;-83
2022/02/04 00:38:12;;;;;;;28.95;18.10;;;;;;;;;;5029840;28;20481;-83
2022/02/04 00:40:34;;;;;;;28.35;18.42;;;;;;;;;;5041696;28;20069;-88
2022/02/04 00:43:04;;;;;;;30.58;18.48;;;;;;;;;;5025308;28;20033;-82
2022/02/04 00:45:46;;;;;;;28.90;18.15;;;;;;;;;;5045075;28;20025;-83
2022/02/04 00:48:31;;;;;;;27.80;18.02;;;;;;;;;;5030150;28;20079;-83
2022/02/04 00:54:01;;;;;;;31.20;18.05;;;;;;;;;;5041811;28;20040;-86
2022/02/04 01:26:13;;;;;;;22.73;14.25;;;;;;;;;;5044725;28;20124;-82
2022/02/04 01:28:40;;;;;;;23.23;13.40;;;;;;;;;;5031502;28;20037;-82
2022/02/04 01:31:07;;;;;;;21.90;13.95;;;;;;;;;;5024618;28;20660;-82
2022/02/04 01:33:33;;;;;;;25.13;14.85;;;;;;;;;;5028523;28;20474;-86
2022/02/04 01:35:59;;;;;;;22.95;13.95;;;;;;;;;;5024876;28;20036;-85
2022/02/04 01:38:26;;;;;;;23.35;13.75;;;;;;;;;;5029952;28;20031;-82
2022/02/04 01:40:53;;;;;;;22.17;13.35;;;;;;;;;;5027342;28;20133;-90
2022/02/04 01:43:21;;;;;;;20.23;13.73;;;;;;;;;;5027861;28;20021;-83
2022/02/04 01:45:52;;;;;;;21.33;13.45;;;;;;;;;;5025671;28;20490;-86
2022/02/04 01:48:17;;;;;;;21.90;13.05;;;;;;;;;;5027010;28;20071;-85
2022/02/04 01:50:45;;;;;;;18.75;12.25;;;;;;;;;;5024753;28;20911;-87
2022/02/04 01:53:11;;;;;;;24.20;12.68;;;;;;;;;;5022318;28;20156;-86
2022/02/04 01:55:36;;;;;;;19.83;12.60;;;;;;;;;;5025651;28;20136;-83
2022/02/04 01:58:02;;;;;;;20.33;12.65;;;;;;;;;;5025266;28;20030;-83
2022/02/04 02:00:27;;;;;;;18.60;12.32;;;;;;;;;;5028158;28;20037;-90
2022/02/04 02:02:53;;;;;;;19.75;12.95;;;;;;;;;;5028723;28;20477;-84
2022/02/04 02:05:18;;;;;;;18.75;12.40;;;;;;;;;;5027259;28;20029;-83
2022/02/04 02:07:46;;;;;;;20.48;12.45;;;;;;;;;;5044991;28;20025;-89
2022/02/04 02:10:16;;;;;;;18.92;11.95;;;;;;;;;;5026881;28;20079;-84
2022/02/04 02:35:01;;;;;;;17.52;10.82;;;;;;;;;;5046739;28;20432;-83
2022/02/04 02:37:41;;;;;;;18.17;11.00;;;;;;;;;;5035173;28;20134;-85
2022/02/04 02:42:25;;;;;;;18.73;10.65;;;;;;;;;;5041074;28;20386;-83
2022/02/04 02:45:27;;;;;;;16.23;9.77;;;;;;;;;;5028117;28;20025;-83
2022/02/04 02:47:53;;;;;;;16.58;9.95;;;;;;;;;;5039136;28;20041;-86
2022/02/04 02:55:46;;;;;;;15.02;8.75;;;;;;;;;;5046301;28;20090;-83
2022/02/04 02:58:19;;;;;;;16.35;9.18;;;;;;;;;;5043392;28;20462;-82
2022/02/04 03:00:53;;;;;;;14.15;9.20;;;;;;;;;;5026969;28;20111;-86
2022/02/04 03:03:20;;;;;;;15.13;8.85;;;;;;;;;;5028092;28;20033;-82
2022/02/04 03:05:46;;;;;;;13.25;8.07;;;;;;;;;;5028736;28;20032;-89
2022/02/04 03:08:11;;;;;;;15.23;9.48;;;;;;;;;;5025871;28;20034;-83
2022/02/04 03:10:37;;;;;;;14.73;9.07;;;;;;;;;;5019309;28;20079;-82
2022/02/04 03:13:06;;;;;;;14.82;9.23;;;;;;;;;;5042662;28;20108;-86
2022/02/04 03:15:31;;;;;;;15.38;9.05;;;;;;;;;;5027954;28;20028;-88
2022/02/04 03:18:01;;;;;;;16.42;9.98;;;;;;;;;;5043691;28;20048;-90
2022/02/04 03:20:27;;;;;;;13.52;8.15;;;;;;;;;;5024668;28;20032;-83
2022/02/04 03:22:53;;;;;;;12.55;8.18;;;;;;;;;;5027154;28;20044;-83
2022/02/04 03:25:22;;;;;;;13.43;8.38;;;;;;;;;;5026140;28;20025;-83
2022/02/04 03:27:51;;;;;;;16.77;8.35;;;;;;;;;;5027522;28;20025;-89
2022/02/04 03:32:53;;;;;;;14.27;8.55;;;;;;;;;;5049188;28;20058;-85
2022/02/04 03:35:21;;;;;;;12.73;7.90;;;;;;;;;;5043616;28;20400;-89
2022/02/04 03:37:48;;;;;;;11.68;8.13;;;;;;;;;;5042048;28;20515;-82
2022/02/04 03:40:14;;;;;;;13.40;7.88;;;;;;;;;;5029706;28;20482;-85
2022/02/04 03:42:40;;;;;;;11.93;7.90;;;;;;;;;;5031994;28;20029;-83
2022/02/04 03:45:05;;;;;;;12.43;8.15;;;;;;;;;;5032492;28;20021;-88
2022/02/04 03:47:31;;;;;;;13.52;8.43;;;;;;;;;;5032593;28;20029;-83
2022/02/04 03:49:56;;;;;;;15.65;7.70;;;;;;;;;;5031103;28;20033;-89
2022/02/04 03:52:23;;;;;;;12.95;7.90;;;;;;;;;;5045608;28;20037;-86
2022/02/04 03:54:48;;;;;;;11.40;7.43;;;;;;;;;;5043236;28;20025;-85
2022/02/04 03:57:14;;;;;;;11.52;7.20;;;;;;;;;;5030054;28;20044;-83
2022/02/04 03:59:39;;;;;;;12.27;7.57;;;;;;;;;;5029282;28;20068;-83
2022/02/04 04:02:04;;;;;;;11.55;8.00;;;;;;;;;;5044768;28;20029;-86
2022/02/04 04:04:33;;;;;;;13.63;7.90;;;;;;;;;;5032779;28;20068;-90
2022/02/04 04:06:59;;;;;;;11.70;7.18;;;;;;;;;;5031388;28;20036;-84
2022/02/04 04:09:25;;;;;;;11.35;7.28;;;;;;;;;;5030137;28;20048;-89
2022/02/04 04:11:51;;;;;;;11.38;7.15;;;;;;;;;;5034047;28;20481;-83
2022/02/04 04:14:18;;;;;;;12.10;7.40;;;;;;;;;;5029909;28;20174;-85
2022/02/04 04:16:43;;;;;;;12.90;7.90;;;;;;;;;;5029555;28;20029;-89
2022/02/04 04:19:09;;;;;;;11.48;7.13;;;;;;;;;;5028765;28;20170;-83
2022/02/04 04:21:34;;;;;;;10.95;6.95;;;;;;;;;;5047991;28;20029;-83
2022/02/04 04:24:00;;;;;;;13.35;7.68;;;;;;;;;;5025069;28;20017;-89
2022/02/04 04:26:26;;;;;;;12.23;7.00;;;;;;;;;;5028639;28;20041;-84
2022/02/04 04:28:51;;;;;;;10.85;7.05;;;;;;;;;;5032948;28;20036;-83
2022/02/04 04:31:18;;;;;;;12.85;7.13;;;;;;;;;;5030176;28;20440;-88
2022/02/04 04:33:43;;;;;;;10.25;6.60;;;;;;;;;;5030598;28;20029;-89
2022/02/04 04:36:09;;;;;;;13.40;6.43;;;;;;;;;;5045471;28;20043;-83
2022/02/04 04:38:41;;;;;;;11.13;6.45;;;;;;;;;;5033547;28;20032;-89
2022/02/04 05:29:40;;;;;;;8.68;5.00;;;;;;;;;;5046095;28;20033;-82
2022/02/04 05:32:06;;;;;;;9.60;4.85;;;;;;;;;;5030677;28;20083;-82
2022/02/04 05:34:31;;;;;;;8.13;4.75;;;;;;;;;;5029455;28;20035;-89
2022/02/04 05:37:04;;;;;;;6.88;4.22;;;;;;;;;;5045521;28;20501;-87
2022/02/04 05:39:36;;;;;;;8.15;4.00;;;;;;;;;;5047957;28;20024;-86
2022/02/04 05:42:03;;;;;;;8.57;4.70;;;;;;;;;;5032327;28;20029;-81
2022/02/04 05:44:30;;;;;;;7.57;4.07;;;;;;;;;;5043930;28;20486;-87
2022/02/04 05:47:01;;;;;;;6.68;3.70;;;;;;;;;;5045968;28;20455;-83
2022/02/04 05:49:30;;;;;;;9.27;4.32;;;;;;;;;;5024874;28;20056;-82
2022/02/04 05:52:12;;;;;;;7.22;3.85;;;;;;;;;;5028406;28;20094;-85
2022/02/04 05:57:47;;;;;;;6.25;3.20;;;;;;;;;;5016550;28;20055;-85
2022/02/04 06:05:20;;;;;;;7.07;3.63;;;;;;;;;;5039662;28;20137;-82
2022/02/04 06:24:03;;;;;;;5.70;3.45;;;;;;;;;;5044461;28;20047;-83
2022/02/04 06:26:30;;;;;;;6.15;3.60;;;;;;;;;;5031438;28;20112;-82
2022/02/04 06:28:56;;;;;;;5.70;3.78;;;;;;;;;;5026573;28;20027;-83
2022/02/04 06:31:22;;;;;;;6.55;4.50;;;;;;;;;;5033033;28;20055;-89
2022/02/04 06:33:48;;;;;;;8.65;4.25;;;;;;;;;;5028686;28;20105;-85
2022/02/04 06:36:14;;;;;;;5.90;4.35;;;;;;;;;;5029395;28;20028;-90
2022/02/04 06:38:39;;;;;;;5.65;4.45;;;;;;;;;;5044593;28;20055;-82
2022/02/04 06:41:07;;;;;;;7.32;4.50;;;;;;;;;;5031353;28;20020;-83
2022/02/04 06:43:35;;;;;;;7.30;4.38;;;;;;;;;;5022770;28;20086;-83
2022/02/04 06:46:23;;;;;;;5.82;4.20;;;;;;;;;;5038153;28;20025;-84
2022/02/04 06:48:50;;;;;;;5.90;4.18;;;;;;;;;;5038413;28;20531;-89
2022/02/04 06:51:16;;;;;;;5.88;4.13;;;;;;;;;;5025880;28;20110;-82
2022/02/04 06:53:41;;;;;;;8.98;4.90;;;;;;;;;;5022799;28;20029;-89
2022/02/04 06:56:06;;;;;;;6.40;3.85;;;;;;;;;;5022952;28;20033;-85
2022/02/04 06:58:33;;;;;;;5.70;4.15;;;;;;;;;;5021775;28;20064;-87
2022/02/04 07:00:58;;;;;;;7.32;4.22;;;;;;;;;;5038579;28;20047;-86
2022/02/04 07:03:27;;;;;;;6.65;4.30;;;;;;;;;;5019526;28;20600;-83
2022/02/04 07:05:57;;;;;;;6.78;4.60;;;;;;;;;;5023097;28;20044;-88
2022/02/04 07:08:37;;;;;;;7.75;5.03;;;;;;;;;;5040110;28;20040;-89
2022/02/04 07:17:07;;;;;;;9.77;5.00;;;;;;;;;;5042778;28;20423;-85
2022/02/04 07:19:46;;;;;;;6.38;4.35;;;;;;;;;;5043744;28;20087;-88
2022/02/04 07:22:29;;;;;;;6.65;4.40;;;;;;;;;;5029492;28;20389;-86
2022/02/04 07:24:56;;;;;;;6.93;4.60;;;;;;;;;;5044852;28;20036;-83
2022/02/04 07:27:26;;;;;;;7.43;4.40;;;;;;;;;;5028083;28;20075;-86
2022/02/04 07:29:53;;;;;;;7.47;4.30;;;;;;;;;;5026509;28;20030;-85
2022/02/04 07:43:08;;;;;;;7.05;4.38;;;;;;;;;;4945259;29;20428;-83
2022/02/04 07:45:35;;;;;;;6.68;4.53;;;;;;;;;;5006813;28;20037;-88
2022/02/04 07:48:01;;;;;;;6.43;4.30;;;;;;;;;;5027672;28;20128;-83
2022/02/04 07:50:26;;;;;;;7.38;5.03;;;;;;;;;;5029217;28;20103;-82
2022/02/04 07:52:52;;;;;;;8.48;4.65;;;;;;;;;;5023274;28;20120;-84
2022/02/04 07:55:18;;;;;;;23.52;5.22;;;;;;;;;;5030403;28;20086;-85
2022/02/04 07:57:44;;;;;;;7.32;5.25;;;;;;;;;;5027603;28;20036;-84
2022/02/04 08:00:14;;;;;;;8.38;5.07;;;;;;;;;;5041545;28;20059;-84
2022/02/04 08:02:42;;;;;;;8.90;5.60;;;;;;;;;;5026597;28;20082;-84
2022/02/04 08:05:10;;;;;;;9.02;5.13;;;;;;;;;;5026866;28;20032;-88
2022/02/04 08:07:52;;;;;;;10.02;5.80;;;;;;;;;;5030055;28;20119;-83
2022/02/04 08:10:37;;;;;;;8.75;5.65;;;;;;;;;;5026254;28;20033;-83
2022/02/04 08:18:57;;;;;;;7.95;4.97;;;;;;;;;;5045915;28;20053;-83
2022/02/04 08:46:32;;;;;;;8.38;5.70;;;;;;;;;;5041404;28;20043;-83
2022/02/04 08:53:32;;;;;;;9.48;6.60;;;;;;;;;;5045751;28;20021;-85
2022/02/04 08:55:55;;;;;;;8.98;6.35;;;;;;;;;;5042890;28;20037;-83
2022/02/04 08:58:35;;;;;;;8.48;6.22;;;;;;;;;;5026436;28;20108;-84
2022/02/04 09:04:09;;;;;;;7.95;5.95;;;;;;;;;;5030048;28;20028;-85
2022/02/04 09:06:40;;;;;;;9.48;7.07;;;;;;;;;;5029213;28;20178;-83
2022/02/04 09:09:12;;;;;;;9.23;6.95;;;;;;;;;;5030615;28;20029;-82
2022/02/04 09:11:44;;;;;;;9.48;6.72;;;;;;;;;;5025526;28;20044;-83
2022/02/04 09:19:47;;;;;;;8.50;6.00;;;;;;;;;;5048102;28;20566;-86
2022/02/04 09:25:04;;;;;;;9.07;6.35;;;;;;;;;;5038100;28;20029;-86
2022/02/04 09:27:30;;;;;;;8.20;5.93;;;;;;;;;;5027108;28;20036;-86
2022/02/04 09:29:55;;;;;;;8.48;6.72;;;;;;;;;;5028703;28;20485;-84
2022/02/04 09:32:21;;;;;;;8.38;6.70;;;;;;;;;;5028339;28;20155;-87
2022/02/04 09:34:47;;;;;;;8.00;6.38;;;;;;;;;;5026522;28;20032;-86
2022/02/04 09:37:12;;;;;;;9.07;6.32;;;;;;;;;;5025554;28;20477;-86
2022/02/04 09:39:38;;;;;;;7.53;5.93;;;;;;;;;;5027810;28;20032;-83
2022/02/04 09:42:06;;;;;;;7.85;6.28;;;;;;;;;;5047048;28;20028;-84
2022/02/04 09:44:36;;;;;;;9.05;6.55;;;;;;;;;;5027610;28;20033;-83
2022/02/04 09:47:02;;;;;;;7.70;6.10;;;;;;;;;;5046505;28;20535;-85
2022/02/04 09:49:32;;;;;;;8.30;6.53;;;;;;;;;;5028817;28;20030;-83
2022/02/04 10:08:44;;;;;;;6.70;4.63;;;;;;;;;;5046714;28;20071;-82
2022/02/04 10:14:18;;;;;;;8.25;5.30;;;;;;;;;;5043714;28;20039;-83
2022/02/04 10:17:04;;;;;;;7.90;5.13;;;;;;;;;;5026219;28;20033;-82
2022/02/04 10:19:40;;;;;;;6.57;5.05;;;;;;;;;;5047008;28;20065;-85
2022/02/04 10:22:05;;;;;;;6.82;4.90;;;;;;;;;;5040996;28;20035;-86
2022/02/04 10:24:33;;;;;;;6.25;4.95;;;;;;;;;;5028034;28;20127;-83
2022/02/04 10:27:16;;;;;;;7.78;5.28;;;;;;;;;;5047347;28;20078;-85
2022/02/04 10:29:50;;;;;;;6.38;4.70;;;;;;;;;;5042449;28;20138;-82
2022/02/04 10:32:15;;;;;;;6.68;4.85;;;;;;;;;;5026868;28;20033;-86
2022/02/04 10:34:58;;;;;;;6.47;4.47;;;;;;;;;;5044332;28;20399;-86
2022/02/04 10:37:28;;;;;;;6.88;4.45;;;;;;;;;;5028284;28;20048;-85
2022/02/04 10:40:11;;;;;;;6.93;4.70;;;;;;;;;;5044643;28;20033;-82
2022/02/04 10:48:04;;;;;;;6.32;4.80;;;;;;;;;;5041862;28;20039;-83
2022/02/04 10:58:24;;;;;;;7.13;4.93;;;;;;;;;;5046038;28;20066;-84
2022/02/04 11:03:30;;;;;;;7.18;4.32;;;;;;;;;;5045146;28;20139;-84
2022/02/04 11:06:14;;;;;;;7.28;5.13;;;;;;;;;;5028175;28;20025;-83
2022/02/04 11:09:04;;;;;;;;;;;;;;;;;;5030202;28;20047;-83
2022/02/04 11:36:11;;;;;;;7.30;4.70;;;;;;;;;;5037651;28;20060;-83
2022/02/04 11:51:03;;;;;;;7.07;3.70;;;;;;;;;;5039142;28;20102;-84
2022/02/04 11:53:32;;;;;;;6.38;4.15;;;;;;;;;;5042821;28;20435;-84
2022/02/04 11:56:00;;;;;;;5.57;3.80;;;;;;;;;;5026853;28;20138;-84
2022/02/04 11:59:02;;;;;;;5.43;3.30;;;;;;;;;;5040343;28;20060;-84
2022/02/04 12:02:04;;;;;;;5.80;3.78;;;;;;;;;;5022587;28;20031;-84
2022/02/04 12:04:30;;;;;;;5.35;3.13;;;;;;;;;;5047111;28;20045;-87
2022/02/04 12:06:58;;;;;;;4.85;3.03;;;;;;;;;;5022496;28;20026;-84
2022/02/04 12:09:32;;;;;;;5.78;2.85;;;;;;;;;;5023628;28;20036;-86
2022/02/04 12:12:01;;;;;;;4.80;2.92;;;;;;;;;;5050419;28;20410;-85
2022/02/04 12:14:31;;;;;;;6.25;3.22;;;;;;;;;;5041878;28;20031;-82
2022/02/04 12:17:16;;;;;;;4.65;2.70;;;;;;;;;;5025237;28;20024;-87
2022/02/04 12:19:44;;;;;;;5.43;2.78;;;;;;;;;;5026978;28;20047;-84
2022/02/04 12:22:11;;;;;;;4.82;3.10;;;;;;;;;;5029761;28;20040;-84
2022/02/04 12:24:41;;;;;;;4.68;2.95;;;;;;;;;;5031470;28;20376;-83
2022/02/04 12:27:30;;;;;;;5.72;2.75;;;;;;;;;;5024335;28;20054;-84
2022/02/04 12:29:57;;;;;;;3.83;2.63;;;;;;;;;;5029903;28;20606;-84
2022/02/04 12:32:25;;;;;;;4.45;2.63;;;;;;;;;;5029666;28;20028;-83
2022/02/04 12:35:06;;;;;;;4.55;2.60;;;;;;;;;;5044983;28;20603;-84
2022/02/04 12:37:36;;;;;;;5.90;2.58;;;;;;;;;;5021509;28;20052;-87
2022/02/04 12:40:07;;;;;;;5.40;2.92;;;;;;;;;;5033530;28;20482;-89
2022/02/04 12:42:35;;;;;;;4.07;2.40;;;;;;;;;;5029945;28;20028;-87
2022/02/04 12:45:05;;;;;;;4.05;2.45;;;;;;;;;;5025921;28;20122;-84
2022/02/04 12:47:32;;;;;;;3.65;2.15;;;;;;;;;;5027952;28;20067;-84
2022/02/04 12:49:58;;;;;;;5.07;2.70;;;;;;;;;;5024847;28;20035;-83
2022/02/04 12:52:42;;;;;;;4.80;2.42;;;;;;;;;;5042502;28;20017;-89
2022/02/04 12:55:10;;;;;;;4.45;2.20;;;;;;;;;;5028696;28;20163;-83
2022/02/04 12:57:40;;;;;;;4.43;2.38;;;;;;;;;;5027179;28;20041;-84
2022/02/04 13:11:10;;;;;;;7.05;2.60;;;;;;;;;;4965392;28;20035;-86
2022/02/04 13:16:09;;;;;;;4.75;2.72;;;;;;;;;;5006905;28;20041;-87
2022/02/04 13:18:41;;;;;;;4.22;2.70;;;;;;;;;;5023596;28;20068;-84
2022/02/04 13:21:12;;;;;;;6.93;2.70;;;;;;;;;;5024867;28;20029;-85
2022/02/04 13:23:37;;;;;;;8.35;3.20;;;;;;;;;;5023897;28;20028;-88
2022/02/04 13:26:05;;;;;;;6.63;3.22;;;;;;;;;;5027213;28;20098;-83
2022/02/04 13:28:38;;;;;;;6.55;3.45;;;;;;;;;;5029587;28;20035;-84
2022/02/04 13:31:11;;;;;;;4.95;3.22;;;;;;;;;;5029441;28;20037;-88
2022/02/04 13:33:44;;;;;;;5.30;3.15;;;;;;;;;;5023561;28;20036;-88
2022/02/04 13:36:34;;;;;;;6.95;3.70;;;;;;;;;;5027512;28;20062;-84
2022/02/04 13:44:54;;;;;;;6.53;4.00;;;;;;;;;;5043589;28;20127;-84
2022/02/04 13:57:49;;;;;;;8.43;4.03;;;;;;;;;;5040896;28;20037;-84
2022/02/04 14:00:42;;;;;;;11.80;5.10;;;;;;;;;;5045421;28;20083;-87
2022/02/04 14:03:21;;;;;;;8.88;4.60;;;;;;;;;;5026051;28;20031;-86
2022/02/04 14:05:56;;;;;;;10.88;4.18;;;;;;;;;;5027745;28;20044;-83
2022/02/04 14:11:51;;;;;;;7.70;4.45;;;;;;;;;;4930579;29;20039;-83
2022/02/04 14:14:22;;;;;;;8.05;4.40;;;;;;;;;;4945541;28;20127;-84
2022/02/04 14:20:20;;;;;;;7.13;4.30;;;;;;;;;;4949627;28;20058;-87
2022/02/04 14:22:51;;;;;;;7.82;4.47;;;;;;;;;;4964810;28;20112;-84
2022/02/04 14:25:23;;;;;;;8.20;4.15;;;;;;;;;;4981868;28;20517;-83
2022/02/04 14:27:55;;;;;;;8.30;4.50;;;;;;;;;;4976914;28;20041;-83
2022/02/04 14:30:29;;;;;;;7.93;4.63;;;;;;;;;;4962719;28;20137;-85
2022/02/04 14:36:02;;;;;;;7.22;4.07;;;;;;;;;;4980696;28;20514;-83
2022/02/04 15:02:01;;;;;;;1.17;0.57;;;;;;;;;;5016340;28;20048;-84
2022/02/04 15:07:36;;;;;;;1.08;0.30;;;;;;;;;;5013535;28;20544;-83
2022/02/04 15:10:14;;;;;;;;;;;;;;;;;;;;;
2022/02/04 15:13:01;;;;;;;0.52;0.20;;;;;;;;;;5017705;28;20039;-84
2022/02/04 15:15:31;;;;;;;0.38;0.28;;;;;;;;;;5013751;28;20041;-83
2022/02/04 15:18:01;;;;;;;0.60;0.20;;;;;;;;;;5013306;28;20576;-87
2022/02/04 15:20:29;;;;;;;0.93;0.30;;;;;;;;;;5029777;28;20512;-84
2022/02/04 15:23:01;;;;;;;0.20;0.20;;;;;;;;;;5016075;28;20144;-83
2022/02/04 15:25:35;;;;;;;0.60;0.30;;;;;;;;;;5013651;28;20053;-84
2022/02/04 15:31:06;;;;;;;2.10;0.50;;;;;;;;;;4991429;28;20048;-83
2022/02/04 15:33:45;;;;;;;;;;;;;;;;;;;;;
2022/02/04 15:36:39;;;;;;;1.50;0.40;;;;;;;;;;5015703;28;20041;-83
2022/02/04 15:39:18;;;;;;;;;;;;;;;;;;;;;
2022/02/04 15:54:46;;;;;;;1.23;0.40;;;;;;;;;;5024039;28;20081;-84
2022/02/04 16:00:54;;;;;;;1.87;0.50;;;;;;;;;;5012939;28;20200;-87
2022/02/04 16:07:06;;;;;;;1.70;0.40;;;;;;;;;;5007270;28;20096;-83
2022/02/04 16:09:41;;;;;;;0.93;0.30;;;;;;;;;;5006592;28;20168;-83
2022/02/04 16:15:29;;;;;;;1.25;0.30;;;;;;;;;;5109252;23;20158;-83
2022/02/04 16:18:18;;;;;;;0.40;0.30;;;;;;;;;;5055251;28;20056;-87
2022/02/04 16:23:33;;;;;;;0.45;0.20;;;;;;;;;;4994631;28;20033;-87
2022/02/04 16:28:42;;;;;;;0.57;0.30;;;;;;;;;;5002689;28;20036;-82
2022/02/04 16:31:13;;;;;;;1.08;0.30;;;;;;;;;;4981732;28;20582;-83
2022/02/04 16:33:39;;;;;;;0.77;0.30;;;;;;;;;;4993565;28;20098;-84
2022/02/04 16:36:11;;;;;;;1.17;0.32;;;;;;;;;;4994345;28;20038;-83
2022/02/04 16:38:37;;;;;;;1.17;0.40;;;;;;;;;;4979517;28;20560;-83
2022/02/04 16:41:06;;;;;;;0.75;0.30;;;;;;;;;;4980947;28;20074;-86
2022/02/04 16:43:35;;;;;;;0.70;0.40;;;;;;;;;;4982554;28;20750;-83
2022/02/04 16:46:06;;;;;;;0.70;0.30;;;;;;;;;;4978844;28;20128;-84
2022/02/04 16:48:32;;;;;;;3.13;0.60;;;;;;;;;;4994813;28;20707;-84
2022/02/04 16:50:57;;;;;;;1.60;0.47;;;;;;;;;;5005939;28;20137;-83
2022/02/04 16:53:23;;;;;;;1.42;0.40;;;;;;;;;;5036136;28;20032;-83
2022/02/04 16:55:49;;;;;;;0.70;0.32;;;;;;;;;;5038567;28;20071;-87
2022/02/04 16:58:14;;;;;;;2.33;0.55;;;;;;;;;;5058642;28;20059;-87
2022/02/04 17:00:46;;;;;;;3.28;0.75;;;;;;;;;;5043571;28;20409;-84
2022/02/04 17:03:12;;;;;;;3.60;0.60;;;;;;;;;;5038484;28;20024;-87
2022/02/04 17:08:13;;;;;;;3.22;0.90;;;;;;;;;;5057872;28;20036;-88
2022/02/04 17:10:43;;;;;;;4.22;1.20;;;;;;;;;;5043482;28;20032;-84
2022/02/04 17:13:09;;;;;;;1.88;0.55;;;;;;;;;;5039654;28;20085;-87
2022/02/04 17:15:37;;;;;;;2.80;0.68;;;;;;;;;;5021167;28;20053;-86
2022/02/04 17:18:05;;;;;;;2.65;0.70;;;;;;;;;;5017554;28;20102;-83
2022/02/04 17:20:31;;;;;;;2.75;1.08;;;;;;;;;;5036528;28;20025;-83
2022/02/04 17:22:58;;;;;;;3.30;1.05;;;;;;;;;;5028978;28;20108;-88
2022/02/04 17:25:59;;;;;;;;;;;;;;;;;;;;;
2022/02/04 17:28:51;;;;;;;2.63;1.02;;;;;;;;;;4977393;28;20045;-83
2022/02/04 17:31:23;;;;;;;4.05;1.10;;;;;;;;;;4961198;28;20044;-83
2022/02/04 17:34:33;;;;;;;;;;;;;;;;;;;;;
2022/02/04 17:37:22;;;;;;;3.58;1.20;;;;;;;;;;4940416;28;20035;-83
2022/02/04 17:39:55;;;;;;;3.20;0.77;;;;;;;;;;4944891;29;20046;-83
2022/02/04 17:42:26;;;;;;;;;;;;;;;;;;4941695;29;20047;-83
2022/02/04 17:44:52;;;;;;;2.58;0.70;;;;;;;;;;4927945;28;20015;-83
2022/02/04 17:47:27;;;;;;;3.40;0.80;;;;;;;;;;4994301;28;20040;-83
2022/02/04 17:50:01;;;;;;;2.13;0.80;;;;;;;;;;5039078;28;20048;-84
2022/02/04 17:55:04;;;;;;;5.95;1.20;;;;;;;;;;5034844;28;20052;-83
2022/02/04 18:08:27;;;;;;;3.20;1.10;;;;;;;;;;5032942;28;20041;-83
2022/02/04 18:10:52;;;;;;;4.57;1.38;;;;;;;;;;5038213;28;20044;-83
2022/02/04 18:13:18;;;;;;;7.05;1.20;;;;;;;;;;5021794;28;20060;-83
2022/02/04 18:15:49;;;;;;;5.72;1.63;;;;;;;;;;5023422;28;20041;-88
2022/02/04 18:18:18;;;;;;;7.15;1.30;;;;;;;;;;5020526;28;20176;-83
2022/02/04 18:20:44;;;;;;;9.70;1.60;;;;;;;;;;5019426;28;20037;-87
2022/02/04 18:23:29;;;;;;;;;;;;;;;;;;;;;
2022/02/04 18:25:59;;;;;;;3.55;1.70;;;;;;;;;;5035536;28;20101;-83
2022/02/04 18:28:27;;;;;;;5.63;1.77;;;;;;;;;;5036220;28;20029;-83
2022/02/04 18:31:02;;;;;;;6.80;2.28;;;;;;;;;;5036749;28;20027;-83
2022/02/04 18:33:27;;;;;;;5.80;1.58;;;;;;;;;;5037802;28;20059;-86
2022/02/04 18:35:59;;;;;;;8.27;2.20;;;;;;;;;;5034467;28;20033;-87
2022/02/04 18:38:53;;;;;;;5.13;1.55;;;;;;;;;;5036386;28;20048;-83
2022/02/04 18:44:35;;;;;;;7.97;2.00;;;;;;;;;;5030081;28;20102;-87
2022/02/04 18:47:31;;;;;;;;;;;;;;;;;;;;;
2022/02/04 18:50:09;;;;;;;4.88;2.10;;;;;;;;;;5038526;28;20037;-84
2022/02/04 18:59:06;;;;;;;6.53;2.78;;;;;;;;;;5035957;28;20056;-83
2022/02/04 19:01:35;;;;;;;9.95;2.92;;;;;;;;;;5022681;28;20032;-82
2022/02/04 19:04:12;;;;;;;11.43;3.05;;;;;;;;;;5018146;28;20029;-83
2022/02/04 19:06:45;;;;;;;8.13;3.10;;;;;;;;;;5031909;28;20681;-82
2022/02/04 19:09:37;;;;;;;8.30;3.28;;;;;;;;;;5018133;28;20041;-83
2022/02/04 19:12:14;;;;;;;12.32;3.55;;;;;;;;;;5018898;28;20037;-83
2022/02/04 19:18:16;;;;;;;11.35;3.65;;;;;;;;;;3153570;23;20126;-84
2022/02/04 19:21:12;;;;;;;12.10;3.42;;;;;;;;;;4996788;28;20041;-87
2022/02/04 19:23:47;;;;;;;8.20;3.33;;;;;;;;;;4944185;28;20049;-89
2022/02/04 19:29:09;;;;;;;9.57;3.78;;;;;;;;;;4948836;28;20123;-85
2022/02/04 19:37:41;;;;;;;7.07;3.50;;;;;;;;;;4945505;28;20590;-88
2022/02/04 19:40:13;;;;;;;10.48;3.28;;;;;;;;;;4937723;28;20035;-85
2022/02/04 19:42:44;;;;;;;10.45;3.70;;;;;;;;;;4932710;28;20103;-85
2022/02/04 19:45:18;;;;;;;8.90;3.60;;;;;;;;;;4928351;29;20043;-85
2022/02/04 19:47:50;;;;;;;10.15;3.80;;;;;;;;;;4948107;28;20163;-84
2022/02/04 20:23:52;;;;;;;11.32;3.50;;;;;;;;;;5003403;28;20069;-85
2022/02/04 20:29:19;;;;;;;8.27;2.85;;;;;;;;;;4964373;28;19965;-83
2022/02/04 20:32:00;;;;;;;;;;;;;;;;;;;;;
2022/02/04 20:34:50;;;;;;;8.77;2.97;;;;;;;;;;4961478;28;20030;-87
2022/02/04 20:37:33;;;;;;;;;;;;;;;;;;;;;
2022/02/04 20:43:25;;;;;;;9.80;2.85;;;;;;;;;;4965391;28;20061;-88
2022/02/04 20:46:22;;;;;;;9.23;2.88;;;;;;;;;;4946586;28;20049;-87
2022/02/04 20:48:56;;;;;;;7.53;2.70;;;;;;;;;;4949208;28;20125;-85
2022/02/04 20:51:22;;;;;;;8.45;2.58;;;;;;;;;;4961391;28;20418;-87
2022/02/04 20:53:54;;;;;;;5.03;2.75;;;;;;;;;;4977961;28;20034;-84
2022/02/04 20:56:23;;;;;;;8.63;2.67;;;;;;;;;;5002996;28;20063;-84
2022/02/04 20:58:54;;;;;;;7.50;2.40;;;;;;;;;;5002108;28;20026;-88
2022/02/04 21:01:55;;;;;;;7.10;2.45;;;;;;;;;;5000730;28;20033;-85
2022/02/04 21:04:27;;;;;;;6.70;2.72;;;;;;;;;;5005938;28;20386;-84
2022/02/04 21:07:00;;;;;;;6.72;2.50;;;;;;;;;;5023283;28;20025;-85
2022/02/04 21:16:30;;;;;;;6.97;2.08;;;;;;;;;;5002430;28;20073;-84
2022/02/04 21:18:56;;;;;;;5.10;1.88;;;;;;;;;;5000834;28;20454;-85
2022/02/04 21:21:28;;;;;;;10.43;2.17;;;;;;;;;;5003990;28;20073;-84
2022/02/04 21:24:27;;;;;;;8.73;2.00;;;;;;;;;;5005620;28;20129;-84
2022/02/04 21:26:59;;;;;;;7.40;1.70;;;;;;;;;;5009178;28;20029;-89
2022/02/04 21:29:44;;;;;;;;;;;;;;;;;;;;;
2022/02/04 21:32:29;;;;;;;8.68;2.63;;;;;;;;;;4947548;28;20038;-84
2022/02/04 21:38:00;;;;;;;5.40;1.65;;;;;;;;;;4947055;28;20034;-84
2022/02/04 21:40:41;;;;;;;;;;;;;;;;;;;;;
2022/02/04 21:43:32;;;;;;;14.65;1.80;;;;;;;;;;4917154;29;20564;-87
2022/02/04 21:46:32;;;;;;;8.27;1.50;;;;;;;;;;4946901;28;20039;-84
2022/02/04 21:49:02;;;;;;;5.38;1.40;;;;;;;;;;4909378;29;20048;-84
2022/02/04 21:51:34;;;;;;;7.47;1.48;;;;;;;;;;4916854;28;20035;-85
2022/02/04 21:54:03;;;;;;;7.70;1.98;;;;;;;;;;4946706;28;20077;-85
2022/02/04 21:56:34;;;;;;;6.57;1.30;;;;;;;;;;4947175;28;20034;-84
2022/02/04 21:59:05;;;;;;;7.07;1.40;;;;;;;;;;4962028;28;20030;-84
2022/02/04 22:01:38;;;;;;;9.27;1.80;;;;;;;;;;4964573;28;20061;-83
2022/02/04 22:04:04;;;;;;;9.35;1.30;;;;;;;;;;4963365;28;20048;-88
2022/02/04 22:06:35;;;;;;;6.88;1.50;;;;;;;;;;4944159;28;20037;-88
2022/02/04 22:09:54;;;;;;;5.72;1.38;;;;;;;;;;4962724;28;20070;-85
2022/02/04 22:22:00;;;;;;;5.72;1.50;;;;;;;;;;5038264;28;20205;-85
2022/02/04 22:23:33;;;;;;;6.03;1.70;;;;;;;;;;5038827;28;20103;-85
2022/02/04 22:26:02;;;;;;;6.65;1.67;;;;;;;;;;5036923;28;20071;-85
2022/02/04 22:28:28;;;;;;;5.32;1.35;;;;;;;;;;5040175;28;20029;-84
2022/02/04 22:30:55;;;;;;;6.35;1.98;;;;;;;;;;5036725;28;20497;-84
2022/02/04 22:33:28;;;;;;;9.52;1.90;;;;;;;;;;5037776;28;20056;-85
2022/02/04 22:38:50;;;;;;;8.77;1.38;;;;;;;;;;5039833;28;20082;-84
2022/02/04 22:44:19;;;;;;;7.55;1.73;;;;;;;;;;5038075;28;20028;-86
2022/02/04 22:47:23;;;;;;;8.23;1.45;;;;;;;;;;5042045;28;20406;-90
2022/02/04 22:57:06;;;;;;;6.68;1.42;;;;;;;;;;5042135;28;20043;-84
2022/02/04 22:59:32;;;;;;;8.35;1.60;;;;;;;;;;5043730;28;20051;-84
2022/02/04 23:02:00;;;;;;;6.07;1.67;;;;;;;;;;5037357;28;20025;-84
2022/02/04 23:04:29;;;;;;;5.70;1.60;;;;;;;;;;5039350;28;20028;-84
2022/02/04 23:06:57;;;;;;;6.80;1.80;;;;;;;;;;5039059;28;20036;-84
2022/02/04 23:09:29;;;;;;;5.55;1.65;;;;;;;;;;5032202;28;20116;-84
2022/02/04 23:11:55;;;;;;;8.57;2.00;;;;;;;;;;5040217;28;20025;-84
2022/02/04 23:15:04;;;;;;;9.70;1.60;;;;;;;;;;5035011;28;20025;-86
2022/02/04 23:22:08;;;;;;;5.55;2.05;;;;;;;;;;5018639;28;20093;-85
2022/02/04 23:24:40;;;;;;;10.43;2.60;;;;;;;;;;5023532;28;20032;-85
2022/02/04 23:27:10;;;;;;;4.25;2.03;;;;;;;;;;5021221;28;20069;-90
2022/02/04 23:51:23;;;;;;;6.75;1.75;;;;;;;;;;5019579;28;20099;-88
2022/02/04 23:53:48;;;;;;;7.30;1.73;;;;;;;;;;5020680;28;20034;-88
2022/02/04 23:56:14;;;;;;;5.85;1.92;;;;;;;;;;5021616;28;20394;-89
2022/02/04 23:58:50;;;;;;;10.73;2.15;;;;;;;;;;5026271;28;20033;-84
